sensor_id;sensor_type;location;lat;lon;timestamp;pressure;altitude;pressure_sealevel;temperature;humidity
54562;BME280;69047;53.358;-1.486;2023-07-31T00:01:45;99377.25;;;16.15;83.13
54562;BME280;69047;53.358;-1.486;2023-07-31T00:04:11;99375.19;;;16.29;83.19
54562;BME280;69047;53.358;-1.486;2023-07-31T00:06:36;99372.25;;;16.17;83.17
54562;BME280;69047;53.358;-1.486;2023-07-31T00:09:01;99364.25;;;16.29;83.76
54562;BME280;69047;53.358;-1.486;2023-07-31T00:11:27;99358.13;;;16.15;83.67
54562;BME280;69047;53.358;-1.486;2023-07-31T00:13:55;99362.81;;;16.31;83.14
54562;BME280;69047;53.358;-1.486;2023-07-31T00:16:21;99357.97;;;16.11;83.49
54562;BME280;69047;53.358;-1.486;2023-07-31T00:18:46;99362.03;;;16.39;83.08
54562;BME280;69047;53.358;-1.486;2023-07-31T00:21:12;99353.31;;;16.46;82.56
54562;BME280;69047;53.358;-1.486;2023-07-31T00:23:37;99355.13;;;16.68;81.72
54562;BME280;69047;53.358;-1.486;2023-07-31T00:26:03;99343.38;;;16.41;82.21
54562;BME280;69047;53.358;-1.486;2023-07-31T00:28:28;99342.03;;;16.04;83.70
54562;BME280;69047;53.358;-1.486;2023-07-31T00:30:54;99360.38;;;16.13;83.53
54562;BME280;69047;53.358;-1.486;2023-07-31T00:33:19;99347.69;;;16.34;83.65
54562;BME280;69047;53.358;-1.486;2023-07-31T00:35:44;99339.66;;;16.29;83.10
54562;BME280;69047;53.358;-1.486;2023-07-31T00:38:10;99332.75;;;16.31;83.27
54562;BME280;69047;53.358;-1.486;2023-07-31T00:40:36;99332.00;;;16.56;82.51
54562;BME280;69047;53.358;-1.486;2023-07-31T00:43:02;99338.06;;;16.45;83.29
54562;BME280;69047;53.358;-1.486;2023-07-31T00:45:29;99326.00;;;16.46;83.33
54562;BME280;69047;53.358;-1.486;2023-07-31T00:47:54;99313.00;;;16.51;82.46
54562;BME280;69047;53.358;-1.486;2023-07-31T00:50:22;99317.03;;;16.71;81.89
54562;BME280;69047;53.358;-1.486;2023-07-31T00:52:49;99329.06;;;16.27;83.01
54562;BME280;69047;53.358;-1.486;2023-07-31T00:55:14;99323.09;;;16.34;83.28
54562;BME280;69047;53.358;-1.486;2023-07-31T00:57:41;99325.88;;;16.42;83.09
54562;BME280;69047;53.358;-1.486;2023-07-31T01:00:07;99320.72;;;16.67;82.16
54562;BME280;69047;53.358;-1.486;2023-07-31T01:02:32;99323.13;;;16.68;82.01
54562;BME280;69047;53.358;-1.486;2023-07-31T01:04:58;99320.88;;;16.53;82.89
54562;BME280;69047;53.358;-1.486;2023-07-31T01:07:36;99326.50;;;16.48;83.03
54562;BME280;69047;53.358;-1.486;2023-07-31T01:10:08;99323.91;;;16.43;83.08
54562;BME280;69047;53.358;-1.486;2023-07-31T01:12:37;99315.72;;;16.34;83.09
54562;BME280;69047;53.358;-1.486;2023-07-31T01:15:07;99299.00;;;16.53;82.89
54562;BME280;69047;53.358;-1.486;2023-07-31T01:17:39;99300.28;;;16.64;82.68
54562;BME280;69047;53.358;-1.486;2023-07-31T01:20:14;99294.53;;;16.48;82.65
54562;BME280;69047;53.358;-1.486;2023-07-31T01:28:06;99291.13;;;16.69;82.31
54562;BME280;69047;53.358;-1.486;2023-07-31T01:30:36;99283.41;;;16.71;82.12
54562;BME280;69047;53.358;-1.486;2023-07-31T01:33:03;99280.38;;;16.72;82.69
54562;BME280;69047;53.358;-1.486;2023-07-31T01:35:36;99274.50;;;16.91;81.63
54562;BME280;69047;53.358;-1.486;2023-07-31T01:38:01;99268.59;;;16.80;81.50
54562;BME280;69047;53.358;-1.486;2023-07-31T01:40:27;99268.13;;;16.78;82.17
54562;BME280;69047;53.358;-1.486;2023-07-31T01:42:52;99266.81;;;16.93;81.63
54562;BME280;69047;53.358;-1.486;2023-07-31T01:45:18;99269.28;;;16.60;82.48
54562;BME280;69047;53.358;-1.486;2023-07-31T01:47:43;99260.75;;;16.53;82.96
54562;BME280;69047;53.358;-1.486;2023-07-31T01:50:09;99266.19;;;16.70;82.39
54562;BME280;69047;53.358;-1.486;2023-07-31T01:52:34;99258.13;;;16.82;81.84
54562;BME280;69047;53.358;-1.486;2023-07-31T01:55:00;99255.41;;;16.74;81.88
54562;BME280;69047;53.358;-1.486;2023-07-31T01:57:25;99262.13;;;16.85;82.12
54562;BME280;69047;53.358;-1.486;2023-07-31T01:59:50;99258.19;;;16.65;82.56
54562;BME280;69047;53.358;-1.486;2023-07-31T02:02:18;99243.03;;;16.76;82.56
54562;BME280;69047;53.358;-1.486;2023-07-31T02:04:43;99261.84;;;16.78;82.56
54562;BME280;69047;53.358;-1.486;2023-07-31T02:07:09;99254.75;;;16.85;81.75
54562;BME280;69047;53.358;-1.486;2023-07-31T02:09:34;99251.22;;;16.76;82.30
54562;BME280;69047;53.358;-1.486;2023-07-31T02:11:59;99245.41;;;16.86;82.07
54562;BME280;69047;53.358;-1.486;2023-07-31T02:14:25;99244.19;;;16.75;83.05
54562;BME280;69047;53.358;-1.486;2023-07-31T02:16:50;99237.03;;;16.91;81.60
54562;BME280;69047;53.358;-1.486;2023-07-31T02:19:15;99229.81;;;16.87;81.78
54562;BME280;69047;53.358;-1.486;2023-07-31T02:21:41;99239.63;;;16.88;82.02
54562;BME280;69047;53.358;-1.486;2023-07-31T02:24:06;99226.22;;;17.03;81.51
54562;BME280;69047;53.358;-1.486;2023-07-31T02:26:32;99225.56;;;16.60;82.70
54562;BME280;69047;53.358;-1.486;2023-07-31T02:28:57;99222.75;;;16.86;82.43
54562;BME280;69047;53.358;-1.486;2023-07-31T02:31:22;99220.28;;;17.01;81.50
54562;BME280;69047;53.358;-1.486;2023-07-31T02:33:48;99220.66;;;16.83;82.48
54562;BME280;69047;53.358;-1.486;2023-07-31T02:36:13;99208.22;;;16.94;82.00
54562;BME280;69047;53.358;-1.486;2023-07-31T02:38:39;99209.94;;;16.69;82.76
54562;BME280;69047;53.358;-1.486;2023-07-31T02:41:05;99216.72;;;16.63;82.79
54562;BME280;69047;53.358;-1.486;2023-07-31T02:43:30;99213.88;;;16.89;82.72
54562;BME280;69047;53.358;-1.486;2023-07-31T02:45:55;99217.03;;;17.08;81.48
54562;BME280;69047;53.358;-1.486;2023-07-31T02:48:21;99208.03;;;17.07;81.25
54562;BME280;69047;53.358;-1.486;2023-07-31T02:50:47;99212.72;;;16.98;81.98
54562;BME280;69047;53.358;-1.486;2023-07-31T02:53:12;99198.59;;;16.96;81.86
54562;BME280;69047;53.358;-1.486;2023-07-31T02:55:38;99205.84;;;16.92;82.53
54562;BME280;69047;53.358;-1.486;2023-07-31T02:58:03;99198.94;;;16.86;82.52
54562;BME280;69047;53.358;-1.486;2023-07-31T03:00:29;99205.19;;;16.95;82.42
54562;BME280;69047;53.358;-1.486;2023-07-31T03:02:54;99204.22;;;16.91;82.84
54562;BME280;69047;53.358;-1.486;2023-07-31T03:05:20;99195.41;;;16.86;82.69
54562;BME280;69047;53.358;-1.486;2023-07-31T03:07:45;99189.16;;;16.77;82.92
54562;BME280;69047;53.358;-1.486;2023-07-31T03:10:11;99196.13;;;17.03;82.03
54562;BME280;69047;53.358;-1.486;2023-07-31T03:12:36;99196.41;;;16.81;82.91
54562;BME280;69047;53.358;-1.486;2023-07-31T03:15:01;99194.81;;;16.72;83.30
54562;BME280;69047;53.358;-1.486;2023-07-31T03:17:27;99198.41;;;17.01;81.99
54562;BME280;69047;53.358;-1.486;2023-07-31T03:19:52;99192.34;;;16.87;82.07
54562;BME280;69047;53.358;-1.486;2023-07-31T03:22:17;99191.19;;;16.88;82.23
54562;BME280;69047;53.358;-1.486;2023-07-31T03:24:43;99191.41;;;17.12;81.97
54562;BME280;69047;53.358;-1.486;2023-07-31T03:27:08;99187.47;;;17.01;82.16
54562;BME280;69047;53.358;-1.486;2023-07-31T03:29:33;99195.72;;;17.22;81.48
54562;BME280;69047;53.358;-1.486;2023-07-31T03:31:59;99193.22;;;17.38;80.23
54562;BME280;69047;53.358;-1.486;2023-07-31T03:34:24;99188.53;;;17.38;80.08
54562;BME280;69047;53.358;-1.486;2023-07-31T03:36:50;99177.16;;;17.28;80.72
54562;BME280;69047;53.358;-1.486;2023-07-31T03:39:15;99180.09;;;17.23;81.22
54562;BME280;69047;53.358;-1.486;2023-07-31T03:41:41;99185.47;;;17.10;81.15
54562;BME280;69047;53.358;-1.486;2023-07-31T03:44:06;99183.31;;;17.25;81.15
54562;BME280;69047;53.358;-1.486;2023-07-31T03:46:31;99187.38;;;17.19;81.32
54562;BME280;69047;53.358;-1.486;2023-07-31T03:48:57;99180.38;;;17.30;80.93
54562;BME280;69047;53.358;-1.486;2023-07-31T03:51:22;99186.28;;;17.11;81.42
54562;BME280;69047;53.358;-1.486;2023-07-31T03:53:48;99187.41;;;17.10;81.55
54562;BME280;69047;53.358;-1.486;2023-07-31T03:56:13;99186.19;;;16.99;82.05
54562;BME280;69047;53.358;-1.486;2023-07-31T03:58:38;99178.69;;;16.87;82.31
54562;BME280;69047;53.358;-1.486;2023-07-31T04:01:04;99180.59;;;16.87;82.80
54562;BME280;69047;53.358;-1.486;2023-07-31T04:03:30;99182.97;;;16.97;82.48
54562;BME280;69047;53.358;-1.486;2023-07-31T04:05:55;99184.16;;;16.87;83.22
54562;BME280;69047;53.358;-1.486;2023-07-31T04:08:21;99175.38;;;17.02;82.49
54562;BME280;69047;53.358;-1.486;2023-07-31T04:10:47;99178.97;;;17.24;82.02
54562;BME280;69047;53.358;-1.486;2023-07-31T04:13:12;99165.16;;;17.20;81.86
54562;BME280;69047;53.358;-1.486;2023-07-31T04:15:38;99166.53;;;17.35;80.63
54562;BME280;69047;53.358;-1.486;2023-07-31T04:18:04;99160.56;;;17.03;80.84
54562;BME280;69047;53.358;-1.486;2023-07-31T04:20:30;99170.47;;;16.87;82.39
54562;BME280;69047;53.358;-1.486;2023-07-31T04:22:55;99167.88;;;16.91;82.21
54562;BME280;69047;53.358;-1.486;2023-07-31T04:25:20;99169.63;;;16.95;81.89
54562;BME280;69047;53.358;-1.486;2023-07-31T04:27:46;99159.25;;;17.09;81.71
54562;BME280;69047;53.358;-1.486;2023-07-31T04:30:11;99159.91;;;17.06;81.94
54562;BME280;69047;53.358;-1.486;2023-07-31T04:32:37;99163.19;;;16.91;82.29
54562;BME280;69047;53.358;-1.486;2023-07-31T04:35:03;99174.72;;;17.05;82.84
54562;BME280;69047;53.358;-1.486;2023-07-31T04:37:28;99167.66;;;17.04;82.39
54562;BME280;69047;53.358;-1.486;2023-07-31T04:39:54;99176.72;;;17.26;81.58
54562;BME280;69047;53.358;-1.486;2023-07-31T04:42:19;99178.19;;;16.85;82.41
54562;BME280;69047;53.358;-1.486;2023-07-31T04:44:44;99178.19;;;16.85;82.39
54562;BME280;69047;53.358;-1.486;2023-07-31T04:47:10;99178.19;;;17.14;82.18
54562;BME280;69047;53.358;-1.486;2023-07-31T04:49:35;99176.50;;;17.31;81.69
54562;BME280;69047;53.358;-1.486;2023-07-31T04:52:01;99171.38;;;17.00;81.17
54562;BME280;69047;53.358;-1.486;2023-07-31T04:54:26;99182.34;;;17.29;80.88
54562;BME280;69047;53.358;-1.486;2023-07-31T04:56:51;99185.41;;;17.48;80.37
54562;BME280;69047;53.358;-1.486;2023-07-31T04:59:17;99179.72;;;17.53;79.25
54562;BME280;69047;53.358;-1.486;2023-07-31T05:01:43;99174.84;;;17.38;79.78
54562;BME280;69047;53.358;-1.486;2023-07-31T05:04:12;99169.34;;;17.47;80.49
54562;BME280;69047;53.358;-1.486;2023-07-31T05:06:38;99177.34;;;17.52;80.13
54562;BME280;69047;53.358;-1.486;2023-07-31T05:09:03;99174.81;;;17.47;80.31
54562;BME280;69047;53.358;-1.486;2023-07-31T05:11:28;99174.19;;;17.41;79.95
54562;BME280;69047;53.358;-1.486;2023-07-31T05:13:54;99174.16;;;17.50;79.70
54562;BME280;69047;53.358;-1.486;2023-07-31T05:16:19;99184.84;;;17.63;79.00
54562;BME280;69047;53.358;-1.486;2023-07-31T05:18:44;99191.13;;;17.64;78.82
54562;BME280;69047;53.358;-1.486;2023-07-31T05:21:10;99194.34;;;17.66;79.44
54562;BME280;69047;53.358;-1.486;2023-07-31T05:23:35;99197.03;;;17.45;80.46
54562;BME280;69047;53.358;-1.486;2023-07-31T05:26:04;99197.44;;;17.27;80.23
54562;BME280;69047;53.358;-1.486;2023-07-31T05:28:30;99208.16;;;17.40;80.46
54562;BME280;69047;53.358;-1.486;2023-07-31T05:31:00;99204.88;;;17.26;81.43
54562;BME280;69047;53.358;-1.486;2023-07-31T05:33:25;99206.16;;;17.29;81.81
54562;BME280;69047;53.358;-1.486;2023-07-31T05:35:51;99198.03;;;17.41;80.69
54562;BME280;69047;53.358;-1.486;2023-07-31T05:38:16;99192.34;;;17.46;80.37
54562;BME280;69047;53.358;-1.486;2023-07-31T05:40:42;99207.72;;;17.30;80.88
54562;BME280;69047;53.358;-1.486;2023-07-31T05:43:08;99198.97;;;17.15;82.48
54562;BME280;69047;53.358;-1.486;2023-07-31T05:45:33;99198.00;;;17.11;81.96
54562;BME280;69047;53.358;-1.486;2023-07-31T05:47:58;99203.38;;;17.08;82.66
54562;BME280;69047;53.358;-1.486;2023-07-31T05:50:24;99195.56;;;17.19;82.33
54562;BME280;69047;53.358;-1.486;2023-07-31T05:52:49;99196.31;;;16.98;81.89
54562;BME280;69047;53.358;-1.486;2023-07-31T05:55:15;99194.25;;;16.95;82.82
54562;BME280;69047;53.358;-1.486;2023-07-31T05:57:41;99195.75;;;17.13;81.58
54562;BME280;69047;53.358;-1.486;2023-07-31T06:00:07;99196.59;;;17.05;80.81
54562;BME280;69047;53.358;-1.486;2023-07-31T06:02:33;99192.84;;;17.19;81.52
54562;BME280;69047;53.358;-1.486;2023-07-31T06:05:02;99177.13;;;17.36;80.20
54562;BME280;69047;53.358;-1.486;2023-07-31T06:07:29;99181.66;;;17.32;80.33
54562;BME280;69047;53.358;-1.486;2023-07-31T06:09:55;99179.91;;;17.28;80.43
54562;BME280;69047;53.358;-1.486;2023-07-31T06:12:20;99168.50;;;17.26;80.71
54562;BME280;69047;53.358;-1.486;2023-07-31T06:14:46;99164.63;;;17.27;80.36
54562;BME280;69047;53.358;-1.486;2023-07-31T06:17:12;99167.88;;;17.49;80.00
54562;BME280;69047;53.358;-1.486;2023-07-31T06:19:37;99163.28;;;17.33;80.91
54562;BME280;69047;53.358;-1.486;2023-07-31T06:22:03;99162.72;;;17.48;81.00
54562;BME280;69047;53.358;-1.486;2023-07-31T06:24:28;99158.25;;;17.43;80.81
54562;BME280;69047;53.358;-1.486;2023-07-31T06:26:55;99156.41;;;17.77;79.87
54562;BME280;69047;53.358;-1.486;2023-07-31T06:29:22;99158.72;;;17.87;79.32
54562;BME280;69047;53.358;-1.486;2023-07-31T06:31:48;99155.47;;;17.73;79.06
54562;BME280;69047;53.358;-1.486;2023-07-31T06:34:14;99154.47;;;17.98;78.36
54562;BME280;69047;53.358;-1.486;2023-07-31T06:36:39;99157.16;;;17.86;77.95
54562;BME280;69047;53.358;-1.486;2023-07-31T06:39:05;99164.28;;;17.99;78.27
54562;BME280;69047;53.358;-1.486;2023-07-31T06:41:31;99169.97;;;17.73;78.83
54562;BME280;69047;53.358;-1.486;2023-07-31T06:43:56;99168.78;;;17.83;78.25
54562;BME280;69047;53.358;-1.486;2023-07-31T06:46:22;99165.75;;;17.76;79.01
54562;BME280;69047;53.358;-1.486;2023-07-31T06:48:48;99164.34;;;17.90;78.09
54562;BME280;69047;53.358;-1.486;2023-07-31T06:51:13;99160.41;;;17.79;78.26
54562;BME280;69047;53.358;-1.486;2023-07-31T06:53:39;99160.00;;;17.68;78.68
54562;BME280;69047;53.358;-1.486;2023-07-31T06:56:05;99168.13;;;17.65;79.40
54562;BME280;69047;53.358;-1.486;2023-07-31T06:58:30;99168.09;;;17.86;78.64
54562;BME280;69047;53.358;-1.486;2023-07-31T07:00:56;99178.03;;;17.90;77.64
54562;BME280;69047;53.358;-1.486;2023-07-31T07:03:21;99165.75;;;17.96;76.83
54562;BME280;69047;53.358;-1.486;2023-07-31T07:05:50;99176.56;;;17.93;77.99
54562;BME280;69047;53.358;-1.486;2023-07-31T07:08:16;99177.38;;;17.93;76.96
54562;BME280;69047;53.358;-1.486;2023-07-31T07:10:42;99182.63;;;17.98;76.64
54562;BME280;69047;53.358;-1.486;2023-07-31T07:13:08;99187.53;;;17.72;78.28
54562;BME280;69047;53.358;-1.486;2023-07-31T07:15:33;99181.97;;;17.81;77.03
54562;BME280;69047;53.358;-1.486;2023-07-31T07:17:59;99173.06;;;18.04;76.08
54562;BME280;69047;53.358;-1.486;2023-07-31T07:20:24;99175.97;;;17.87;76.09
54562;BME280;69047;53.358;-1.486;2023-07-31T07:22:50;99172.97;;;17.80;77.14
54562;BME280;69047;53.358;-1.486;2023-07-31T07:25:15;99170.94;;;17.89;75.81
54562;BME280;69047;53.358;-1.486;2023-07-31T07:27:40;99163.47;;;17.98;75.12
54562;BME280;69047;53.358;-1.486;2023-07-31T07:30:06;99163.31;;;18.15;74.31
54562;BME280;69047;53.358;-1.486;2023-07-31T07:32:32;99162.78;;;18.01;74.75
54562;BME280;69047;53.358;-1.486;2023-07-31T07:34:57;99152.31;;;18.03;74.63
54562;BME280;69047;53.358;-1.486;2023-07-31T07:37:23;99150.91;;;17.97;75.48
54562;BME280;69047;53.358;-1.486;2023-07-31T07:39:49;99132.06;;;17.96;75.70
54562;BME280;69047;53.358;-1.486;2023-07-31T07:42:14;99133.94;;;17.83;74.88
54562;BME280;69047;53.358;-1.486;2023-07-31T07:44:40;99121.16;;;17.75;75.05
54562;BME280;69047;53.358;-1.486;2023-07-31T07:47:05;99125.00;;;17.95;74.19
54562;BME280;69047;53.358;-1.486;2023-07-31T07:49:35;99134.69;;;17.92;73.50
54562;BME280;69047;53.358;-1.486;2023-07-31T07:52:01;99145.19;;;17.90;73.78
54562;BME280;69047;53.358;-1.486;2023-07-31T07:54:27;99138.22;;;17.93;73.48
54562;BME280;69047;53.358;-1.486;2023-07-31T07:56:52;99127.13;;;17.89;74.38
54562;BME280;69047;53.358;-1.486;2023-07-31T07:59:18;99132.56;;;17.77;72.91
54562;BME280;69047;53.358;-1.486;2023-07-31T08:01:43;99131.63;;;17.94;72.85
54562;BME280;69047;53.358;-1.486;2023-07-31T08:04:09;99118.59;;;17.91;72.81
54562;BME280;69047;53.358;-1.486;2023-07-31T08:06:34;99129.94;;;17.81;73.09
54562;BME280;69047;53.358;-1.486;2023-07-31T08:09:00;99138.44;;;17.88;72.82
54562;BME280;69047;53.358;-1.486;2023-07-31T08:11:30;99144.38;;;17.90;72.57
54562;BME280;69047;53.358;-1.486;2023-07-31T08:13:55;99156.34;;;17.85;72.35
54562;BME280;69047;53.358;-1.486;2023-07-31T08:16:21;99152.72;;;17.93;72.34
54562;BME280;69047;53.358;-1.486;2023-07-31T08:18:47;99156.81;;;17.87;71.89
54562;BME280;69047;53.358;-1.486;2023-07-31T08:21:14;99154.13;;;17.79;73.64
54562;BME280;69047;53.358;-1.486;2023-07-31T08:23:40;99156.34;;;17.85;73.10
54562;BME280;69047;53.358;-1.486;2023-07-31T08:26:05;99152.41;;;17.95;73.83
54562;BME280;69047;53.358;-1.486;2023-07-31T08:28:31;99147.38;;;17.97;74.15
54562;BME280;69047;53.358;-1.486;2023-07-31T08:30:56;99135.22;;;18.06;72.94
54562;BME280;69047;53.358;-1.486;2023-07-31T08:33:21;99139.13;;;18.17;72.74
54562;BME280;69047;53.358;-1.486;2023-07-31T08:35:47;99130.47;;;18.28;72.09
54562;BME280;69047;53.358;-1.486;2023-07-31T08:38:12;99129.00;;;18.30;71.67
54562;BME280;69047;53.358;-1.486;2023-07-31T08:40:38;99132.69;;;18.13;72.81
54562;BME280;69047;53.358;-1.486;2023-07-31T08:43:04;99129.50;;;18.11;73.51
54562;BME280;69047;53.358;-1.486;2023-07-31T08:45:30;99134.53;;;18.09;73.28
54562;BME280;69047;53.358;-1.486;2023-07-31T08:47:56;99137.84;;;18.15;72.90
54562;BME280;69047;53.358;-1.486;2023-07-31T08:50:25;99152.91;;;18.09;72.06
54562;BME280;69047;53.358;-1.486;2023-07-31T08:52:51;99143.03;;;18.29;71.91
54562;BME280;69047;53.358;-1.486;2023-07-31T08:55:17;99142.97;;;18.16;72.49
54562;BME280;69047;53.358;-1.486;2023-07-31T08:57:48;99152.16;;;18.20;72.13
54562;BME280;69047;53.358;-1.486;2023-07-31T09:00:15;99148.91;;;18.06;72.50
54562;BME280;69047;53.358;-1.486;2023-07-31T09:02:46;99144.22;;;17.86;73.38
54562;BME280;69047;53.358;-1.486;2023-07-31T09:05:12;99145.41;;;17.64;74.11
54562;BME280;69047;53.358;-1.486;2023-07-31T09:07:38;99149.19;;;17.93;73.16
54562;BME280;69047;53.358;-1.486;2023-07-31T09:10:05;99140.81;;;17.89;72.13
54562;BME280;69047;53.358;-1.486;2023-07-31T09:12:31;99130.94;;;17.97;72.94
54562;BME280;69047;53.358;-1.486;2023-07-31T09:15:06;99129.63;;;17.82;72.73
54562;BME280;69047;53.358;-1.486;2023-07-31T09:17:33;99126.75;;;17.79;72.86
54562;BME280;69047;53.358;-1.486;2023-07-31T09:20:17;99131.22;;;17.62;74.00
54562;BME280;69047;53.358;-1.486;2023-07-31T09:22:44;99135.25;;;17.86;72.44
54562;BME280;69047;53.358;-1.486;2023-07-31T09:25:23;99127.75;;;17.95;72.52
54562;BME280;69047;53.358;-1.486;2023-07-31T09:30:15;99121.47;;;17.94;73.49
54562;BME280;69047;53.358;-1.486;2023-07-31T09:32:42;99130.69;;;17.90;71.97
54562;BME280;69047;53.358;-1.486;2023-07-31T09:35:19;99131.34;;;18.19;71.47
54562;BME280;69047;53.358;-1.486;2023-07-31T09:37:52;99142.69;;;18.30;70.56
54562;BME280;69047;53.358;-1.486;2023-07-31T09:40:34;99129.16;;;18.01;71.07
54562;BME280;69047;53.358;-1.486;2023-07-31T09:43:03;99109.13;;;17.88;71.85
54562;BME280;69047;53.358;-1.486;2023-07-31T09:45:29;99107.13;;;18.09;71.50
54562;BME280;69047;53.358;-1.486;2023-07-31T09:47:56;99114.88;;;18.07;71.19
54562;BME280;69047;53.358;-1.486;2023-07-31T09:50:23;99120.66;;;17.94;71.93
54562;BME280;69047;53.358;-1.486;2023-07-31T09:52:50;99122.22;;;17.83;73.10
54562;BME280;69047;53.358;-1.486;2023-07-31T09:55:16;99128.97;;;17.85;73.13
54562;BME280;69047;53.358;-1.486;2023-07-31T09:57:43;99127.09;;;18.10;71.47
54562;BME280;69047;53.358;-1.486;2023-07-31T10:00:10;99124.72;;;18.08;72.30
54562;BME280;69047;53.358;-1.486;2023-07-31T10:02:37;99119.47;;;17.83;73.02
54562;BME280;69047;53.358;-1.486;2023-07-31T10:05:04;99112.84;;;18.16;72.72
54562;BME280;69047;53.358;-1.486;2023-07-31T10:07:31;99122.19;;;18.03;72.27
54562;BME280;69047;53.358;-1.486;2023-07-31T10:09:59;99131.53;;;18.02;71.67
54562;BME280;69047;53.358;-1.486;2023-07-31T10:12:27;99125.75;;;17.83;72.23
54562;BME280;69047;53.358;-1.486;2023-07-31T10:14:55;99122.75;;;17.76;72.22
54562;BME280;69047;53.358;-1.486;2023-07-31T10:17:22;99131.72;;;17.64;73.19
54562;BME280;69047;53.358;-1.486;2023-07-31T10:19:49;99142.53;;;17.61;72.70
54562;BME280;69047;53.358;-1.486;2023-07-31T10:22:15;99142.31;;;17.66;72.97
54562;BME280;69047;53.358;-1.486;2023-07-31T10:24:45;99140.63;;;17.53;73.95
54562;BME280;69047;53.358;-1.486;2023-07-31T10:27:11;99152.94;;;17.67;73.75
54562;BME280;69047;53.358;-1.486;2023-07-31T10:29:38;99144.91;;;17.62;73.52
54562;BME280;69047;53.358;-1.486;2023-07-31T10:32:05;99129.63;;;17.82;73.73
54562;BME280;69047;53.358;-1.486;2023-07-31T10:34:37;99141.94;;;17.76;72.99
54562;BME280;69047;53.358;-1.486;2023-07-31T10:37:29;99133.66;;;17.64;73.59
54562;BME280;69047;53.358;-1.486;2023-07-31T10:40:03;99114.94;;;17.66;73.54
54562;BME280;69047;53.358;-1.486;2023-07-31T10:42:36;99111.28;;;17.83;73.23
54562;BME280;69047;53.358;-1.486;2023-07-31T10:45:08;99106.84;;;17.90;72.40
54562;BME280;69047;53.358;-1.486;2023-07-31T10:47:44;99097.75;;;17.78;72.85
54562;BME280;69047;53.358;-1.486;2023-07-31T10:50:21;99090.53;;;17.94;72.25
54562;BME280;69047;53.358;-1.486;2023-07-31T10:53:07;99094.25;;;17.89;72.76
54562;BME280;69047;53.358;-1.486;2023-07-31T10:55:43;99093.00;;;17.87;72.38
54562;BME280;69047;53.358;-1.486;2023-07-31T10:58:13;99097.94;;;17.93;72.47
54562;BME280;69047;53.358;-1.486;2023-07-31T11:00:44;99105.03;;;17.94;72.89
54562;BME280;69047;53.358;-1.486;2023-07-31T11:05:50;99101.22;;;17.87;73.54
54562;BME280;69047;53.358;-1.486;2023-07-31T11:08:42;99085.81;;;17.82;72.17
54562;BME280;69047;53.358;-1.486;2023-07-31T11:11:10;99083.50;;;17.72;73.93
54562;BME280;69047;53.358;-1.486;2023-07-31T11:13:45;99088.34;;;17.87;72.26
54562;BME280;69047;53.358;-1.486;2023-07-31T11:16:13;99075.22;;;17.93;71.80
54562;BME280;69047;53.358;-1.486;2023-07-31T11:18:40;99090.78;;;18.01;71.42
54562;BME280;69047;53.358;-1.486;2023-07-31T11:21:08;99108.00;;;18.01;71.92
54562;BME280;69047;53.358;-1.486;2023-07-31T11:23:33;99115.28;;;17.64;73.36
54562;BME280;69047;53.358;-1.486;2023-07-31T11:26:01;99113.50;;;17.39;73.92
54562;BME280;69047;53.358;-1.486;2023-07-31T11:28:32;99123.28;;;17.49;73.64
54562;BME280;69047;53.358;-1.486;2023-07-31T11:30:58;99121.81;;;17.72;73.63
54562;BME280;69047;53.358;-1.486;2023-07-31T11:33:24;99130.06;;;18.05;73.06
54562;BME280;69047;53.358;-1.486;2023-07-31T11:35:50;99133.28;;;17.86;71.63
54562;BME280;69047;53.358;-1.486;2023-07-31T11:38:36;99125.00;;;17.74;71.88
54562;BME280;69047;53.358;-1.486;2023-07-31T11:41:03;99112.84;;;17.84;71.91
54562;BME280;69047;53.358;-1.486;2023-07-31T11:43:30;99117.56;;;17.95;70.98
54562;BME280;69047;53.358;-1.486;2023-07-31T11:45:57;99110.06;;;17.72;69.74
54562;BME280;69047;53.358;-1.486;2023-07-31T11:48:34;99108.13;;;17.72;71.37
54562;BME280;69047;53.358;-1.486;2023-07-31T11:51:03;99122.09;;;17.79;70.79
54562;BME280;69047;53.358;-1.486;2023-07-31T11:56:06;99100.31;;;17.83;71.45
54562;BME280;69047;53.358;-1.486;2023-07-31T11:58:34;99102.88;;;17.67;71.47
54562;BME280;69047;53.358;-1.486;2023-07-31T12:01:00;99082.59;;;17.80;70.80
54562;BME280;69047;53.358;-1.486;2023-07-31T12:03:26;99072.97;;;17.62;71.31
54562;BME280;69047;53.358;-1.486;2023-07-31T12:05:55;99081.81;;;17.38;73.62
54562;BME280;69047;53.358;-1.486;2023-07-31T12:08:22;99087.47;;;17.54;74.10
54562;BME280;69047;53.358;-1.486;2023-07-31T12:10:50;99087.75;;;17.40;74.49
54562;BME280;69047;53.358;-1.486;2023-07-31T12:13:24;99084.69;;;17.62;71.70
54562;BME280;69047;53.358;-1.486;2023-07-31T12:15:54;99089.72;;;17.60;73.39
54562;BME280;69047;53.358;-1.486;2023-07-31T12:18:20;99050.13;;;17.58;71.89
54562;BME280;69047;53.358;-1.486;2023-07-31T12:20:48;99039.44;;;17.65;72.62
54562;BME280;69047;53.358;-1.486;2023-07-31T12:23:19;99049.38;;;17.49;73.80
54562;BME280;69047;53.358;-1.486;2023-07-31T12:26:17;99057.22;;;17.50;73.90
54562;BME280;69047;53.358;-1.486;2023-07-31T12:31:12;99086.50;;;17.79;73.38
54562;BME280;69047;53.358;-1.486;2023-07-31T12:33:39;99093.13;;;17.57;72.31
54562;BME280;69047;53.358;-1.486;2023-07-31T12:36:10;99076.44;;;17.71;72.42
54562;BME280;69047;53.358;-1.486;2023-07-31T12:38:36;99056.91;;;17.73;71.91
54562;BME280;69047;53.358;-1.486;2023-07-31T12:41:01;99060.41;;;17.61;72.34
54562;BME280;69047;53.358;-1.486;2023-07-31T12:43:27;99060.69;;;17.68;72.45
54562;BME280;69047;53.358;-1.486;2023-07-31T12:45:54;99080.38;;;17.61;71.72
54562;BME280;69047;53.358;-1.486;2023-07-31T12:48:21;99090.56;;;17.32;72.93
54562;BME280;69047;53.358;-1.486;2023-07-31T12:50:46;99082.97;;;17.37;72.27
54562;BME280;69047;53.358;-1.486;2023-07-31T12:53:12;99086.28;;;17.43;73.18
54562;BME280;69047;53.358;-1.486;2023-07-31T12:55:37;99088.00;;;17.47;71.22
54562;BME280;69047;53.358;-1.486;2023-07-31T12:58:03;99094.03;;;17.41;71.34
54562;BME280;69047;53.358;-1.486;2023-07-31T13:00:29;99097.75;;;17.36;72.34
54562;BME280;69047;53.358;-1.486;2023-07-31T13:02:54;99094.38;;;17.60;70.81
54562;BME280;69047;53.358;-1.486;2023-07-31T13:05:20;99079.69;;;17.44;71.28